createdAt,value
2023-04-16T00:02:52.421Z,7.65
2023-04-16T00:06:54.931Z,6.78
2023-04-16T00:10:57.014Z,5.75
2023-04-16T00:14:59.359Z,6.95
2023-04-16T00:19:01.477Z,8.75
2023-04-16T00:23:03.645Z,7.18
2023-04-16T00:27:06.555Z,7.00
2023-04-16T00:31:08.843Z,6.07
2023-04-16T00:35:11.246Z,6.18
2023-04-16T00:39:13.440Z,6.10
2023-04-16T00:43:26.165Z,6.18
2023-04-16T00:47:28.949Z,6.07
2023-04-16T00:51:31.805Z,7.90
2023-04-16T00:55:34.457Z,6.88
2023-04-16T00:59:36.486Z,7.50
2023-04-16T01:03:41.069Z,7.88
2023-04-16T01:07:43.434Z,6.85
2023-04-16T01:11:45.468Z,7.07
2023-04-16T01:15:47.546Z,6.22
2023-04-16T01:19:49.557Z,7.25
2023-04-16T01:23:51.701Z,6.63
2023-04-16T01:27:54.914Z,6.85
2023-04-16T01:31:56.909Z,6.28
2023-04-16T01:36:06.960Z,8.02
2023-04-16T01:40:09.331Z,8.02
2023-04-16T01:44:11.362Z,8.50
2023-04-16T01:48:13.447Z,7.53
2023-04-16T01:52:15.506Z,7.72
2023-04-16T01:56:17.527Z,7.97
2023-04-16T02:00:19.697Z,8.35
2023-04-16T02:04:21.663Z,8.82
2023-04-16T02:08:24.085Z,9.52
2023-04-16T02:12:26.636Z,8.00
2023-04-16T02:16:28.670Z,8.77
2023-04-16T02:20:49.856Z,8.32
2023-04-16T02:24:52.976Z,9.40
2023-04-16T02:28:55.018Z,7.72
2023-04-16T02:33:05.458Z,9.10
2023-04-16T02:37:07.848Z,11.13
2023-04-16T02:41:10.780Z,11.43
2023-04-16T02:45:12.926Z,11.43
2023-04-16T02:49:14.959Z,12.18
2023-04-16T02:53:16.948Z,13.18
2023-04-16T02:57:18.862Z,13.73
2023-04-16T03:01:20.878Z,10.57
2023-04-16T03:05:23.006Z,9.80
2023-04-16T03:09:26.009Z,11.73
2023-04-16T03:13:28.126Z,9.75
2023-04-16T03:17:30.448Z,11.20
2023-04-16T03:21:33.231Z,10.82
2023-04-16T03:25:35.224Z,10.23
2023-04-16T03:29:40.410Z,10.18
2023-04-16T03:33:43.896Z,10.38
2023-04-16T03:37:46.362Z,11.18
2023-04-16T03:41:48.418Z,10.95
2023-04-16T03:45:50.767Z,11.77
2023-04-16T03:49:55.808Z,11.65
2023-04-16T03:53:57.976Z,13.52
2023-04-16T03:58:03.183Z,14.18
2023-04-16T04:02:07.176Z,15.93
2023-04-16T04:06:09.649Z,13.52
2023-04-16T04:10:11.890Z,14.88
2023-04-16T04:14:16.609Z,13.18
2023-04-16T04:18:18.760Z,14.82
2023-04-16T04:22:21.062Z,17.15
2023-04-16T04:26:23.241Z,18.95
2023-04-16T04:30:26.385Z,19.30
2023-04-16T04:34:29.571Z,20.10
2023-04-16T04:38:33.622Z,15.50
2023-04-16T04:42:37.585Z,15.65
2023-04-16T04:46:40.700Z,18.92
2023-04-16T04:50:43.132Z,16.52
2023-04-16T04:54:45.315Z,15.15
2023-04-16T04:58:49.783Z,16.92
2023-04-16T05:02:54.054Z,16.02
2023-04-16T05:06:56.394Z,15.55
2023-04-16T05:10:58.505Z,15.15
2023-04-16T05:15:00.515Z,16.15
2023-04-16T05:19:02.826Z,14.68
2023-04-16T05:23:04.753Z,15.38
2023-04-16T05:27:06.750Z,14.95
2023-04-16T05:31:08.988Z,12.65
2023-04-16T05:35:11.049Z,13.10
2023-04-16T05:39:12.723Z,13.73
2023-04-16T05:43:15.040Z,14.02
2023-04-16T05:47:17.529Z,13.07
2023-04-16T05:51:20.132Z,14.07
2023-04-16T05:55:22.232Z,14.15
2023-04-16T05:59:24.228Z,15.15
2023-04-16T06:03:26.725Z,13.48
2023-04-16T06:07:28.984Z,13.38
2023-04-16T06:11:31.097Z,13.40
2023-04-16T06:15:33.162Z,14.70
2023-04-16T06:19:35.268Z,13.27
2023-04-16T06:23:37.259Z,14.40
2023-04-16T06:27:39.347Z,12.70
2023-04-16T06:31:41.719Z,13.07
2023-04-16T06:35:43.721Z,11.27
2023-04-16T06:39:45.774Z,11.00
2023-04-16T06:43:47.792Z,10.98
2023-04-16T06:47:50.887Z,11.48
2023-04-16T06:51:53.016Z,11.23
2023-04-16T06:55:55.660Z,10.48
2023-04-16T06:59:57.560Z,9.65
2023-04-16T07:03:59.942Z,10.52
2023-04-16T07:08:02.315Z,9.60
2023-04-16T07:12:04.834Z,11.13
2023-04-16T07:16:07.052Z,9.25
2023-04-16T07:20:09.813Z,9.60
2023-04-16T07:24:12.046Z,9.02
2023-04-16T07:28:16.556Z,9.60
2023-04-16T07:32:22.448Z,10.73
2023-04-16T07:36:24.849Z,12.85
2023-04-16T07:40:27.089Z,10.10
2023-04-16T07:44:29.812Z,10.93
2023-04-16T07:48:31.874Z,11.18
2023-04-16T07:52:33.914Z,9.77
2023-04-16T07:56:36.263Z,9.18
2023-04-16T08:00:38.468Z,8.98
2023-04-16T08:04:42.160Z,9.82
2023-04-16T08:08:44.564Z,9.27
2023-04-16T08:12:46.836Z,8.25
2023-04-16T08:16:49.701Z,8.57
2023-04-16T08:20:51.849Z,9.68
2023-04-16T08:24:53.880Z,8.68
2023-04-16T08:28:55.883Z,9.40
2023-04-16T08:32:58.263Z,8.50
2023-04-16T08:37:00.266Z,8.32
2023-04-16T08:41:05.728Z,8.88
2023-04-16T08:45:13.665Z,7.22
2023-04-16T08:49:20.487Z,8.15
2023-04-16T08:53:43.577Z,9.25
2023-04-16T08:57:53.534Z,9.05
2023-04-16T09:01:59.553Z,9.95
2023-04-16T09:06:03.495Z,9.73
2023-04-16T09:10:07.840Z,9.25
2023-04-16T09:14:11.231Z,9.43
2023-04-16T09:18:13.352Z,8.20
2023-04-16T09:22:17.135Z,8.93
2023-04-16T09:26:20.806Z,8.63
2023-04-16T09:30:27.734Z,8.95
2023-04-16T09:34:29.886Z,8.65
2023-04-16T09:38:48.020Z,8.18
2023-04-16T09:42:50.496Z,7.28
2023-04-16T09:46:52.687Z,8.43
2023-04-16T09:50:54.958Z,7.90
2023-04-16T09:54:56.973Z,8.52
2023-04-16T09:59:02.160Z,8.25
2023-04-16T10:03:06.192Z,8.80
2023-04-16T10:07:08.631Z,8.95
2023-04-16T10:11:11.395Z,8.00
2023-04-16T10:15:13.515Z,8.25
2023-04-16T10:19:16.471Z,7.68
2023-04-16T10:23:21.191Z,7.85
2023-04-16T10:27:23.552Z,8.10
2023-04-16T10:31:27.193Z,8.02
2023-04-16T10:35:30.342Z,6.88
2023-04-16T10:39:37.410Z,6.63
2023-04-16T10:43:42.052Z,7.60
2023-04-16T10:47:44.389Z,7.13
2023-04-16T10:51:59.611Z,6.50
2023-04-16T10:56:04.839Z,6.07
2023-04-16T11:00:22.587Z,7.63
2023-04-16T11:04:24.910Z,5.78
2023-04-16T11:08:27.226Z,6.97
2023-04-16T11:12:37.323Z,7.22
2023-04-16T11:16:41.174Z,6.28
2023-04-16T11:20:43.546Z,6.53
2023-04-16T11:24:46.994Z,6.68
2023-04-16T11:28:49.064Z,6.65
2023-04-16T11:32:51.223Z,6.57
2023-04-16T11:36:53.320Z,5.82
2023-04-16T11:40:55.492Z,5.78
2023-04-16T11:45:00.699Z,5.78
2023-04-16T11:49:02.783Z,5.80
2023-04-16T11:53:06.390Z,6.03
2023-04-16T11:57:08.575Z,6.28
2023-04-16T12:01:11.042Z,6.22
2023-04-16T12:05:39.401Z,6.47
2023-04-16T12:09:42.920Z,6.47
2023-04-16T12:14:08.720Z,6.10
2023-04-16T12:18:10.804Z,5.97
2023-04-16T12:22:12.905Z,7.05
2023-04-16T12:26:14.933Z,5.85
2023-04-16T12:30:18.816Z,5.97
2023-04-16T12:34:22.155Z,6.13
2023-04-16T12:38:36.723Z,5.65
2023-04-16T12:42:38.714Z,6.57
2023-04-16T12:46:41.986Z,6.45
2023-04-16T12:50:44.480Z,6.15
2023-04-16T12:54:46.689Z,5.80
2023-04-16T12:58:51.667Z,5.22
2023-04-16T13:02:53.846Z,6.07
2023-04-16T13:06:56.042Z,5.68
2023-04-16T13:10:58.127Z,5.80
2023-04-16T13:15:00.199Z,5.50
2023-04-16T13:19:02.308Z,4.88
2023-04-16T13:23:07.203Z,4.72
2023-04-16T13:27:09.356Z,4.35
2023-04-16T13:31:11.850Z,5.30
2023-04-16T13:35:14.062Z,5.20
2023-04-16T13:39:16.467Z,4.82
2023-04-16T13:43:19.099Z,5.18
2023-04-16T13:47:21.262Z,5.30
2023-04-16T13:51:23.394Z,4.57
2023-04-16T13:55:25.522Z,4.50
2023-04-16T13:59:27.623Z,5.00
2023-04-16T14:03:29.768Z,4.43
2023-04-16T14:07:32.612Z,4.47
2023-04-16T14:11:34.704Z,4.13
2023-04-16T14:15:36.791Z,4.20
2023-04-16T14:19:38.842Z,4.50
2023-04-16T14:23:41.195Z,5.18
2023-04-16T14:27:43.315Z,5.13
2023-04-16T14:31:45.562Z,6.03
2023-04-16T14:35:47.691Z,5.80
2023-04-16T14:39:50.701Z,5.75
2023-04-16T14:43:52.742Z,5.63
2023-04-16T14:47:54.886Z,5.85
2023-04-16T14:51:57.044Z,5.45
2023-04-16T14:55:59.227Z,5.68
2023-04-16T15:00:01.239Z,6.18
2023-04-16T15:04:03.547Z,5.82
2023-04-16T15:08:06.055Z,6.32
2023-04-16T15:12:08.150Z,5.65
2023-04-16T15:16:10.378Z,5.82
2023-04-16T15:20:13.608Z,6.28
2023-04-16T15:24:15.630Z,53.15
2023-04-16T15:28:17.720Z,7.70
2023-04-16T15:32:19.951Z,5.88
2023-04-16T15:36:22.098Z,7.50
2023-04-16T15:40:24.820Z,6.55
2023-04-16T15:44:26.946Z,7.20
2023-04-16T15:48:29.072Z,7.10
2023-04-16T15:52:31.381Z,7.60
2023-04-16T15:56:33.441Z,7.60
2023-04-16T16:00:35.808Z,6.80
2023-04-16T16:04:37.849Z,7.95
2023-04-16T16:08:42.020Z,7.95
2023-04-16T16:12:44.025Z,7.78
2023-04-16T16:16:46.253Z,9.52
2023-04-16T16:20:49.053Z,8.25
2023-04-16T16:24:52.181Z,9.55
2023-04-16T16:28:54.191Z,9.38
2023-04-16T16:32:56.405Z,9.90
2023-04-16T16:36:58.943Z,8.68
2023-04-16T16:41:01.014Z,9.73
2023-04-16T16:45:05.922Z,10.00
2023-04-16T16:49:09.886Z,11.35
2023-04-16T16:53:12.230Z,10.73
2023-04-16T16:57:15.377Z,11.85
2023-04-16T17:01:17.983Z,12.38
2023-04-16T17:05:20.095Z,13.52
2023-04-16T17:09:22.277Z,13.63
2023-04-16T17:13:25.256Z,14.48
2023-04-16T17:17:28.361Z,12.57
2023-04-16T17:21:33.267Z,12.63
2023-04-16T17:25:35.745Z,13.23
2023-04-16T17:29:37.895Z,12.80
2023-04-16T17:33:39.904Z,13.02
2023-04-16T17:37:42.115Z,16.98
2023-04-16T17:41:44.695Z,14.20
2023-04-16T17:45:46.786Z,12.95
2023-04-16T17:49:48.841Z,14.05
2023-04-16T17:53:51.881Z,14.30
2023-04-16T17:57:54.104Z,15.48
2023-04-16T18:01:56.674Z,17.42
2023-04-16T18:05:59.404Z,16.02
2023-04-16T18:10:01.651Z,14.52
2023-04-16T18:14:03.720Z,14.70
2023-04-16T18:18:06.043Z,15.73
2023-04-16T18:22:08.196Z,15.85
2023-04-16T18:26:11.044Z,16.58
2023-04-16T18:34:20.723Z,16.10
2023-04-16T18:38:22.979Z,15.93
2023-04-16T18:42:28.222Z,17.48
2023-04-16T18:46:30.433Z,16.30
2023-04-16T18:50:32.460Z,15.10
2023-04-16T18:54:34.523Z,16.20
2023-04-16T18:58:36.811Z,16.38
2023-04-16T19:02:39.677Z,17.73
2023-04-16T19:06:41.982Z,16.23
2023-04-16T19:10:47.196Z,16.25
2023-04-16T19:14:49.196Z,16.90
2023-04-16T19:18:51.470Z,18.17
2023-04-16T19:22:53.536Z,17.42
2023-04-16T19:26:56.114Z,19.20
2023-04-16T19:30:58.113Z,19.00
2023-04-16T19:35:00.549Z,20.05
2023-04-16T19:39:02.544Z,19.67
2023-04-16T19:43:04.601Z,19.02
2023-04-16T19:47:06.655Z,20.98
2023-04-16T19:51:08.782Z,22.15
2023-04-16T19:55:10.852Z,21.30
2023-04-16T19:59:12.967Z,22.20
2023-04-16T20:03:15.585Z,21.92
2023-04-16T20:07:17.599Z,20.40
2023-04-16T20:11:19.750Z,23.60
2023-04-16T20:15:22.076Z,23.52
2023-04-16T20:19:29.940Z,25.10
2023-04-16T20:23:31.980Z,23.67
2023-04-16T20:27:34.073Z,25.58
2023-04-16T20:31:36.008Z,25.55
2023-04-16T20:35:38.067Z,25.13
2023-04-16T20:39:41.977Z,25.63
2023-04-16T20:43:44.109Z,25.13
2023-04-16T20:47:46.451Z,25.40
2023-04-16T20:51:48.577Z,25.52
2023-04-16T20:55:50.626Z,23.77
2023-04-16T20:59:52.649Z,24.00
2023-04-16T21:03:54.869Z,24.30
2023-04-16T21:07:56.986Z,23.90
2023-04-16T21:11:59.042Z,24.00
2023-04-16T21:16:01.145Z,23.13
2023-04-16T21:20:06.821Z,23.83
2023-04-16T21:24:08.898Z,23.13
2023-04-16T21:28:10.949Z,23.88
2023-04-16T21:32:12.980Z,25.35
2023-04-16T21:36:15.464Z,22.27
2023-04-16T21:40:17.580Z,20.90
2023-04-16T21:44:21.079Z,24.15
2023-04-16T21:48:23.498Z,22.45
2023-04-16T21:52:25.556Z,21.55
2023-04-16T21:56:27.718Z,24.42
2023-04-16T22:00:29.977Z,22.95
2023-04-16T22:04:38.883Z,24.13
2023-04-16T22:08:40.995Z,24.48
2023-04-16T22:12:44.944Z,23.50
2023-04-16T22:16:49.809Z,23.48
2023-04-16T22:20:54.939Z,24.33
2023-04-16T22:24:57.092Z,23.33
2023-04-16T22:28:59.133Z,25.02
2023-04-16T22:33:03.821Z,22.80
2023-04-16T22:37:08.024Z,22.85
2023-04-16T22:41:10.013Z,22.95
2023-04-16T22:45:12.696Z,22.75
2023-04-16T22:49:14.852Z,24.77
2023-04-16T22:53:16.877Z,23.75
2023-04-16T22:57:22.866Z,23.95
2023-04-16T23:01:25.138Z,24.60
2023-04-16T23:05:27.354Z,23.83
2023-04-16T23:09:29.317Z,23.58
2023-04-16T23:13:31.722Z,26.83
2023-04-16T23:17:35.107Z,24.02
2023-04-16T23:21:37.292Z,23.55
2023-04-16T23:25:41.245Z,24.15
2023-04-16T23:29:43.228Z,25.65
2023-04-16T23:33:45.241Z,24.90
2023-04-16T23:37:47.266Z,25.95
2023-04-16T23:41:49.487Z,26.05
2023-04-16T23:45:51.519Z,25.73
2023-04-16T23:49:53.535Z,25.90
2023-04-16T23:53:55.725Z,26.92
2023-04-16T23:57:57.692Z,25.73
